Time;durP1;ratioP1;P1;durP2;ratioP2;P2;SDS_P1;SDS_P2;PMS_P1;PMS_P2;Temp;Humidity;BMP_temperature;BMP_pressure;BME280_temperature;BME280_humidity;BME280_pressure;Samples;Min_cycle;Max_cycle;Signal;HPM_P1;HPM_P2
2023/11/13 00:00:15;;;;;;;21.08;5.93;;;12.60;99.90;;;;;;5049973;28;20051;-72
2023/11/13 00:02:40;;;;;;;11.68;3.97;;;12.60;99.90;;;;;;5067286;28;20063;-72
2023/11/13 00:05:07;;;;;;;21.03;4.77;;;12.60;99.90;;;;;;5067436;28;20036;-73
2023/11/13 00:07:32;;;;;;;;;;;12.60;99.90;;;;;;5067275;28;20114;-72
2023/11/13 00:09:58;;;;;;;21.48;6.97;;;12.50;99.90;;;;;;5067372;28;20351;-72
2023/11/13 00:12:24;;;;;;;21.60;6.33;;;12.30;99.90;;;;;;5067060;28;20032;-72
2023/11/13 00:14:50;;;;;;;19.30;6.17;;;12.20;99.90;;;;;;5067383;28;20029;-72
2023/11/13 00:17:15;;;;;;;20.30;6.60;;;12.10;99.90;;;;;;5067456;28;20467;-72
2023/11/13 00:19:43;;;;;;;19.10;5.97;;;12.00;99.90;;;;;;5067186;28;20029;-72
2023/11/13 00:22:09;;;;;;;23.50;7.93;;;12.10;99.90;;;;;;5067165;28;20028;-72
2023/11/13 00:24:34;;;;;;;27.23;8.37;;;12.00;99.90;;;;;;5067008;28;20025;-73
2023/11/13 00:27:00;;;;;;;20.73;7.97;;;12.00;99.90;;;;;;5066882;28;20490;-73
2023/11/13 00:29:26;;;;;;;30.23;7.40;;;12.00;99.90;;;;;;5067459;28;20119;-72
2023/11/13 00:31:51;;;;;;;14.53;6.73;;;12.00;99.90;;;;;;5066853;28;20033;-72
2023/11/13 00:34:17;;;;;;;22.47;7.27;;;11.90;99.90;;;;;;5067175;28;20024;-72
2023/11/13 00:36:43;;;;;;;33.17;8.07;;;12.00;99.90;;;;;;5066871;28;20532;-72
2023/11/13 00:39:10;;;;;;;;;;;11.90;99.90;;;;;;5066246;28;20036;-72
2023/11/13 00:41:40;;;;;;;15.30;5.78;;;11.90;99.90;;;;;;5062877;28;19965;-72
2023/11/13 00:44:06;;;;;;;11.02;4.70;;;11.90;99.90;;;;;;5066707;28;20032;-72
2023/11/13 00:46:32;;;;;;;20.00;5.90;;;11.90;99.90;;;;;;5066736;28;20069;-72
2023/11/13 00:48:58;;;;;;;17.85;4.18;;;12.00;99.90;;;;;;5066410;28;20028;-72
2023/11/13 00:51:24;;;;;;;12.17;3.40;;;12.00;99.90;;;;;;5066302;28;20044;-72
2023/11/13 00:53:49;;;;;;;10.33;3.47;;;12.10;99.90;;;;;;5066230;28;20048;-72
2023/11/13 00:56:16;;;;;;;17.10;2.90;;;12.10;99.90;;;;;;5066621;28;20559;-72
2023/11/13 00:58:42;;;;;;;9.38;2.95;;;12.10;99.90;;;;;;5066392;28;20027;-72
2023/11/13 01:01:10;;;;;;;13.55;3.10;;;12.10;99.90;;;;;;5062512;28;20029;-72
2023/11/13 01:03:36;;;;;;;13.90;2.80;;;12.20;99.90;;;;;;5066302;28;20017;-72
2023/11/13 01:06:02;;;;;;;13.13;3.00;;;12.20;99.90;;;;;;5066707;28;20043;-72
2023/11/13 01:08:28;;;;;;;11.90;2.88;;;12.20;99.90;;;;;;5065872;28;20044;-71
2023/11/13 01:10:54;;;;;;;10.50;2.90;;;12.20;99.90;;;;;;5065113;28;20126;-71
2023/11/13 01:13:21;;;;;;;20.10;3.50;;;12.20;99.90;;;;;;5066087;28;20445;-71
2023/11/13 01:15:52;;;;;;;17.65;3.13;;;12.20;99.90;;;;;;5065831;28;20032;-72
2023/11/13 01:18:18;;;;;;;21.15;3.60;;;12.10;99.90;;;;;;5064538;28;20036;-71
2023/11/13 01:20:47;;;;;;;17.80;4.05;;;12.10;99.90;;;;;;5063627;28;20021;-72
2023/11/13 01:23:13;;;;;;;13.75;3.13;;;12.10;99.90;;;;;;5064522;28;20033;-72
2023/11/13 01:25:40;;;;;;;18.38;3.90;;;12.10;99.90;;;;;;5065744;28;20025;-71
2023/11/13 01:28:06;;;;;;;14.73;3.20;;;12.10;99.90;;;;;;5059107;28;20063;-71
2023/11/13 01:30:31;;;;;;;15.95;3.35;;;12.10;99.90;;;;;;5065343;28;20071;-72
2023/11/13 01:32:57;;;;;;;20.37;3.47;;;12.10;99.90;;;;;;5063595;28;20063;-71
2023/11/13 01:35:24;;;;;;;16.00;3.22;;;12.10;99.90;;;;;;5066170;28;20023;-73
2023/11/13 01:37:50;;;;;;;18.83;3.67;;;12.10;99.90;;;;;;5066118;28;20127;-72
2023/11/13 01:40:16;;;;;;;15.02;2.70;;;12.10;99.90;;;;;;5066511;28;20229;-72
2023/11/13 01:42:42;;;;;;;20.43;3.20;;;12.10;99.90;;;;;;5065779;28;20569;-72
2023/11/13 01:45:08;;;;;;;10.65;2.80;;;12.20;99.90;;;;;;5064900;28;20027;-72
2023/11/13 01:47:35;;;;;;;20.40;3.22;;;12.20;99.90;;;;;;5065903;28;20032;-72
2023/11/13 01:50:02;;;;;;;15.40;3.38;;;12.20;99.90;;;;;;5065724;28;20145;-72
2023/11/13 01:52:28;;;;;;;;;;;12.20;99.90;;;;;;5065838;28;20032;-72
2023/11/13 01:54:55;;;;;;;7.55;2.83;;;12.10;99.90;;;;;;5065379;28;19958;-72
2023/11/13 01:57:21;;;;;;;16.83;3.70;;;12.10;99.90;;;;;;5063436;28;20021;-72
2023/11/13 01:59:47;;;;;;;11.43;3.50;;;12.10;99.90;;;;;;5065118;28;20556;-72
2023/11/13 02:02:13;;;;;;;13.15;3.03;;;12.10;99.90;;;;;;5065268;28;20109;-72
2023/11/13 02:04:39;;;;;;;10.98;3.17;;;12.10;99.90;;;;;;5064010;28;20062;-70
2023/11/13 02:07:05;;;;;;;15.18;2.70;;;12.10;99.90;;;;;;5065609;28;20491;-70
2023/11/13 02:09:31;;;;;;;11.27;2.93;;;12.10;99.90;;;;;;5065017;28;20035;-70
2023/11/13 02:11:57;;;;;;;10.53;3.03;;;12.10;99.90;;;;;;5065856;28;20035;-71
2023/11/13 02:14:23;;;;;;;;;;;12.20;99.90;;;;;;5066971;28;20816;-73
2023/11/13 02:16:49;;;;;;;15.80;2.78;;;12.20;99.90;;;;;;5065875;28;20368;-72
2023/11/13 02:19:16;;;;;;;16.53;3.03;;;12.20;99.90;;;;;;5064828;28;20039;-72
2023/11/13 02:21:42;;;;;;;14.80;2.72;;;12.20;99.90;;;;;;5066469;28;20105;-73
2023/11/13 02:24:10;;;;;;;18.92;2.95;;;12.20;99.90;;;;;;5052272;28;20025;-73
2023/11/13 02:26:35;;;;;;;11.45;3.38;;;12.10;99.90;;;;;;5070031;28;20063;-72
2023/11/13 02:29:01;;;;;;;8.83;2.83;;;12.00;99.90;;;;;;5069914;28;20024;-72
2023/11/13 02:31:27;;;;;;;15.13;3.27;;;12.10;99.90;;;;;;5070154;28;20043;-72
2023/11/13 02:33:53;;;;;;;9.43;2.13;;;12.00;99.90;;;;;;5070310;28;20028;-71
2023/11/13 02:36:19;;;;;;;17.65;3.70;;;12.10;99.90;;;;;;5069671;28;20028;-72
2023/11/13 02:38:44;;;;;;;12.85;3.28;;;12.10;99.90;;;;;;5069526;28;20438;-72
2023/11/13 02:41:10;;;;;;;12.37;3.27;;;12.10;99.90;;;;;;5068056;28;20044;-72
2023/11/13 02:43:36;;;;;;;10.60;2.47;;;12.20;99.90;;;;;;5069683;28;20028;-72
2023/11/13 02:46:02;;;;;;;13.43;2.80;;;12.20;99.90;;;;;;5069088;28;21089;-72
2023/11/13 02:48:27;;;;;;;13.00;2.55;;;12.20;99.90;;;;;;5068939;28;20090;-72
2023/11/13 02:50:53;;;;;;;20.10;4.57;;;12.20;99.90;;;;;;5069621;28;20110;-72
2023/11/13 02:53:19;;;;;;;11.43;4.53;;;12.30;99.90;;;;;;5069569;28;20111;-72
2023/11/13 02:55:44;;;;;;;14.40;5.47;;;12.20;99.90;;;;;;5069253;28;20056;-73
2023/11/13 02:58:10;;;;;;;12.90;3.63;;;12.20;99.90;;;;;;5069814;28;20020;-72
2023/11/13 03:00:35;;;;;;;13.30;4.23;;;12.20;99.90;;;;;;5069642;28;20028;-72
2023/11/13 03:03:01;;;;;;;8.97;4.17;;;12.20;99.90;;;;;;5069223;28;20797;-72
2023/11/13 03:05:27;;;;;;;18.30;4.37;;;12.20;99.90;;;;;;5069332;28;20028;-72
2023/11/13 03:07:52;;;;;;;18.77;4.47;;;12.10;99.90;;;;;;5069405;28;20139;-72
2023/11/13 03:10:18;;;;;;;16.50;4.50;;;12.10;99.90;;;;;;5069379;28;20667;-72
2023/11/13 03:12:43;;;;;;;14.30;4.73;;;12.10;99.90;;;;;;5069514;28;20024;-73
2023/11/13 03:15:09;;;;;;;15.53;6.23;;;12.10;99.90;;;;;;5069756;28;20028;-72
2023/11/13 03:17:35;;;;;;;13.17;7.00;;;12.10;99.90;;;;;;5069213;28;20056;-72
2023/11/13 03:20:03;;;;;;;21.17;9.25;;;12.10;99.90;;;;;;5067220;28;20021;-72
2023/11/13 03:22:28;;;;;;;19.95;9.23;;;12.10;99.90;;;;;;5067923;28;20049;-72
2023/11/13 03:24:54;;;;;;;18.60;9.53;;;12.10;99.90;;;;;;5069263;28;20029;-72
2023/11/13 03:27:19;;;;;;;24.43;9.80;;;12.00;99.90;;;;;;5069069;28;20480;-72
2023/11/13 03:29:45;;;;;;;23.00;8.30;;;12.00;99.90;;;;;;5068840;28;20319;-72
2023/11/13 03:32:11;;;;;;;12.20;6.67;;;12.00;99.90;;;;;;5058327;28;20098;-71
2023/11/13 03:34:36;;;;;;;20.13;6.87;;;12.00;99.90;;;;;;5048396;28;20029;-72
2023/11/13 03:37:02;;;;;;;19.77;6.37;;;11.80;99.90;;;;;;5049306;28;20496;-73
2023/11/13 03:39:27;;;;;;;18.37;7.10;;;11.70;99.90;;;;;;5049392;28;20053;-72
2023/11/13 03:41:53;;;;;;;16.33;7.77;;;11.70;99.90;;;;;;5049260;28;20457;-72
2023/11/13 03:44:19;;;;;;;17.97;6.63;;;11.70;99.90;;;;;;5049463;28;20056;-70
2023/11/13 03:46:45;;;;;;;14.82;6.32;;;11.90;99.90;;;;;;5049451;28;20477;-70
2023/11/13 03:49:10;;;;;;;12.00;6.60;;;11.80;99.90;;;;;;5049042;28;20096;-70
2023/11/13 03:51:36;;;;;;;16.07;6.60;;;11.80;99.90;;;;;;5048524;28;20041;-70
2023/11/13 03:54:02;;;;;;;13.07;7.20;;;11.70;99.90;;;;;;5048770;28;20108;-70
2023/11/13 03:56:27;;;;;;;19.03;6.87;;;11.70;99.90;;;;;;5048327;28;20033;-70
2023/11/13 03:58:53;;;;;;;21.08;8.80;;;11.80;99.90;;;;;;5047616;28;20269;-70
2023/11/13 04:01:20;;;;;;;18.23;8.60;;;11.90;99.90;;;;;;5047753;28;20054;-71
2023/11/13 04:03:46;;;;;;;20.67;7.93;;;11.80;99.90;;;;;;5048490;28;20029;-70
2023/11/13 04:06:12;;;;;;;27.08;8.55;;;11.70;99.90;;;;;;5048325;28;20036;-70
2023/11/13 04:08:38;;;;;;;13.57;7.82;;;11.70;99.90;;;;;;5047675;28;20112;-71
2023/11/13 04:11:04;;;;;;;18.13;8.73;;;11.60;99.90;;;;;;5047902;28;20115;-69
2023/11/13 04:13:34;;;;;;;20.80;8.50;;;11.70;99.90;;;;;;5048176;28;20094;-70
2023/11/13 04:16:00;;;;;;;18.08;8.30;;;11.70;99.90;;;;;;5047793;28;20021;-70
2023/11/13 04:18:28;;;;;;;24.50;8.27;;;11.80;99.90;;;;;;5048076;28;20060;-70
2023/11/13 04:20:55;;;;;;;30.77;9.05;;;11.80;99.90;;;;;;5047891;28;20104;-71
2023/11/13 04:23:20;;;;;;;15.60;7.75;;;11.70;99.90;;;;;;5030391;28;20040;-71
2023/11/13 04:25:47;;;;;;;15.23;8.67;;;11.60;99.90;;;;;;5048163;28;20037;-70
2023/11/13 04:28:16;;;;;;;18.23;8.27;;;11.70;99.90;;;;;;5048214;28;20064;-70
2023/11/13 04:30:42;;;;;;;18.55;8.35;;;11.80;99.90;;;;;;5047971;28;20033;-70
2023/11/13 04:33:07;;;;;;;21.90;9.60;;;11.80;99.90;;;;;;5048069;28;20054;-70
2023/11/13 04:35:33;;;;;;;25.87;13.60;;;11.80;99.90;;;;;;5050280;28;20021;-70
2023/11/13 04:37:58;;;;;;;16.67;9.93;;;11.80;99.90;;;;;;5047796;28;20121;-69
2023/11/13 04:40:26;;;;;;;23.23;10.40;;;11.90;99.90;;;;;;5047612;28;20025;-69
2023/11/13 04:42:51;;;;;;;21.58;9.20;;;11.80;99.90;;;;;;5047297;28;20562;-69
2023/11/13 04:45:17;;;;;;;17.35;8.98;;;11.80;99.90;;;;;;5047292;28;20025;-70
2023/11/13 04:47:43;;;;;;;19.93;9.33;;;11.80;99.90;;;;;;5047927;28;20033;-70
2023/11/13 04:50:08;;;;;;;15.83;9.23;;;11.80;99.90;;;;;;5047916;28;20024;-69
2023/11/13 04:52:34;;;;;;;19.92;9.30;;;11.80;99.90;;;;;;5047296;28;20477;-70
2023/11/13 04:55:00;;;;;;;15.33;8.90;;;11.80;99.90;;;;;;5029667;28;20111;-70
2023/11/13 04:57:26;;;;;;;23.50;10.50;;;11.80;99.90;;;;;;5047109;28;20400;-70
2023/11/13 04:59:52;;;;;;;17.42;8.50;;;11.80;99.90;;;;;;5047184;28;20028;-69
2023/11/13 05:02:18;;;;;;;21.13;8.77;;;11.80;99.90;;;;;;5047493;28;20083;-70
2023/11/13 05:04:45;;;;;;;24.27;9.18;;;11.80;99.90;;;;;;5047641;28;20060;-70
2023/11/13 05:07:10;;;;;;;;;;;11.80;99.90;;;;;;5047806;28;20436;-72
2023/11/13 05:09:36;;;;;;;18.35;8.95;;;11.80;99.90;;;;;;5046615;28;19909;-72
2023/11/13 05:12:02;;;;;;;18.67;9.17;;;11.80;99.90;;;;;;5047142;28;20044;-72
2023/11/13 05:14:27;;;;;;;26.03;12.37;;;11.80;99.90;;;;;;5047139;28;20531;-72
2023/11/13 05:16:56;;;;;;;31.53;13.40;;;11.80;99.90;;;;;;5046860;28;20028;-73
2023/11/13 05:19:22;;;;;;;26.98;11.95;;;11.60;99.90;;;;;;5046867;28;20027;-72
2023/11/13 05:21:48;;;;;;;23.67;11.10;;;11.60;99.90;;;;;;5046955;28;20025;-73
2023/11/13 05:24:13;;;;;;;22.00;9.47;;;11.50;99.90;;;;;;5047134;28;20496;-72
2023/11/13 05:26:39;;;;;;;25.90;10.43;;;11.50;99.90;;;;;;5046307;28;20060;-72
2023/11/13 05:29:05;;;;;;;20.20;9.30;;;11.60;99.90;;;;;;5053091;28;20051;-72
2023/11/13 05:31:30;;;;;;;22.33;9.43;;;11.60;99.90;;;;;;5066491;28;20121;-72
2023/11/13 05:33:56;;;;;;;17.73;8.63;;;11.70;99.90;;;;;;5066647;28;20271;-72
2023/11/13 05:36:22;;;;;;;22.30;8.73;;;11.70;99.90;;;;;;5066813;28;20041;-72
2023/11/13 05:38:47;;;;;;;20.95;7.65;;;11.70;99.90;;;;;;5067150;28;20090;-72
2023/11/13 05:41:13;;;;;;;18.13;7.87;;;11.70;99.90;;;;;;5057659;28;20029;-72
2023/11/13 05:43:39;;;;;;;15.90;6.10;;;11.70;99.90;;;;;;5046622;28;20771;-72
2023/11/13 05:46:05;;;;;;;12.85;6.15;;;11.70;99.90;;;;;;5046336;28;20059;-72
2023/11/13 05:48:31;;;;;;;12.60;6.50;;;11.70;99.90;;;;;;5047096;28;20516;-72
2023/11/13 05:50:58;;;;;;;14.23;6.60;;;11.70;99.90;;;;;;5047018;28;20033;-72
2023/11/13 05:53:24;;;;;;;17.15;6.97;;;11.70;99.90;;;;;;5061441;28;20615;-72
2023/11/13 05:55:50;;;;;;;14.15;6.93;;;11.70;99.90;;;;;;5067202;28;20395;-72
2023/11/13 05:58:16;;;;;;;23.73;8.60;;;11.70;99.90;;;;;;5069512;28;20035;-73
2023/11/13 06:00:43;;;;;;;25.53;8.67;;;11.70;99.90;;;;;;5070383;28;20428;-72
2023/11/13 06:03:09;;;;;;;18.38;9.10;;;11.70;99.90;;;;;;5070596;28;20131;-72
2023/11/13 06:05:34;;;;;;;16.00;7.73;;;11.70;99.90;;;;;;5067408;28;20119;-72
2023/11/13 06:08:00;;;;;;;18.97;6.73;;;11.60;99.90;;;;;;5064685;28;20028;-73
2023/11/13 06:10:25;;;;;;;17.07;6.63;;;11.50;99.90;;;;;;5069670;28;20033;-72
2023/11/13 06:12:51;;;;;;;18.17;6.47;;;11.60;99.90;;;;;;5069996;28;20036;-72
2023/11/13 06:15:17;;;;;;;12.87;6.10;;;11.50;99.90;;;;;;5070477;28;20032;-72
2023/11/13 06:17:44;;;;;;;11.43;4.80;;;11.50;99.90;;;;;;5070101;28;20546;-73
2023/11/13 06:20:14;;;;;;;9.18;4.78;;;11.50;99.90;;;;;;5069642;28;20032;-73
2023/11/13 06:22:41;;;;;;;11.40;5.28;;;11.50;99.90;;;;;;5066326;28;20070;-73
2023/11/13 06:25:07;;;;;;;8.75;4.47;;;11.60;99.90;;;;;;5067685;28;20025;-73
2023/11/13 06:27:34;;;;;;;13.02;4.90;;;11.70;99.90;;;;;;5068624;28;20400;-73
2023/11/13 06:29:59;;;;;;;;;;;11.70;99.90;;;;;;5069193;28;20539;-72
2023/11/13 06:32:26;;;;;;;7.07;4.00;;;11.70;99.90;;;;;;5069249;28;19924;-72
2023/11/13 06:34:51;;;;;;;9.60;3.70;;;11.70;99.90;;;;;;5068534;28;20021;-72
2023/11/13 06:37:17;;;;;;;7.23;3.10;;;11.80;99.90;;;;;;5069593;28;20516;-71
2023/11/13 06:39:44;;;;;;;6.70;3.70;;;11.80;99.90;;;;;;5069625;28;20159;-71
2023/11/13 06:42:09;;;;;;;10.30;3.50;;;11.80;99.90;;;;;;5066937;28;20036;-73
2023/11/13 06:44:35;;;;;;;11.97;3.60;;;11.80;99.90;;;;;;5068390;28;20039;-73
2023/11/13 06:47:00;;;;;;;9.37;4.10;;;11.80;99.90;;;;;;5067858;28;20063;-72
2023/11/13 06:49:26;;;;;;;11.07;4.60;;;11.70;99.90;;;;;;5069424;28;20065;-73
2023/11/13 06:51:52;;;;;;;12.40;4.47;;;11.70;99.90;;;;;;5068719;28;20123;-72
2023/11/13 06:54:19;;;;;;;9.47;4.50;;;11.60;99.90;;;;;;5069325;28;20021;-70
2023/11/13 06:56:46;;;;;;;8.43;3.70;;;11.80;99.90;;;;;;5069133;28;20808;-71
2023/11/13 06:59:11;;;;;;;4.75;3.30;;;11.90;99.90;;;;;;5068496;28;20029;-72
2023/11/13 07:01:41;;;;;;;6.50;3.20;;;12.00;99.90;;;;;;5068303;28;20045;-72
2023/11/13 07:04:09;;;;;;;8.25;3.25;;;11.90;99.90;;;;;;5068490;28;20747;-72
2023/11/13 07:06:37;;;;;;;11.40;3.35;;;12.00;99.90;;;;;;5068295;28;20840;-71
2023/11/13 07:09:03;;;;;;;13.75;3.53;;;12.00;99.90;;;;;;5058437;28;20070;-72
2023/11/13 07:11:29;;;;;;;9.93;3.25;;;12.00;99.90;;;;;;5049779;28;20041;-71
2023/11/13 07:13:55;;;;;;;6.80;2.85;;;12.00;99.90;;;;;;5064893;28;20036;-72
2023/11/13 07:16:21;;;;;;;8.77;3.57;;;12.00;99.90;;;;;;5068218;28;20107;-72
2023/11/13 07:18:47;;;;;;;6.35;3.10;;;12.00;99.90;;;;;;5068405;28;20032;-71
2023/11/13 07:21:15;;;;;;;8.30;3.20;;;12.10;99.90;;;;;;5064712;28;20036;-71
2023/11/13 07:23:40;;;;;;;7.78;3.45;;;12.20;99.90;;;;;;5047780;28;20338;-71
2023/11/13 07:26:06;;;;;;;8.40;2.90;;;12.20;99.90;;;;;;5068079;28;20025;-72
2023/11/13 07:28:32;;;;;;;8.37;3.73;;;12.20;99.90;;;;;;5068027;28;20017;-73
2023/11/13 07:30:58;;;;;;;7.00;3.67;;;12.20;99.90;;;;;;5067973;28;20117;-72
2023/11/13 07:33:23;;;;;;;7.93;3.30;;;12.30;99.90;;;;;;5067468;28;20079;-72
2023/11/13 07:35:49;;;;;;;7.53;3.87;;;12.30;99.90;;;;;;5064321;28;20503;-73
2023/11/13 07:38:15;;;;;;;6.47;3.15;;;12.40;99.90;;;;;;5060506;28;20029;-72
2023/11/13 07:40:40;;;;;;;10.73;3.47;;;12.40;99.90;;;;;;5064904;28;20208;-71
2023/11/13 07:43:08;;;;;;;8.63;4.13;;;12.40;99.90;;;;;;5062444;28;20021;-72
2023/11/13 07:45:34;;;;;;;13.93;5.22;;;12.50;99.90;;;;;;5064674;28;20527;-72
2023/11/13 07:48:00;;;;;;;6.93;3.85;;;12.60;99.90;;;;;;5064358;28;20052;-72
2023/11/13 07:50:27;;;;;;;8.03;3.97;;;12.70;99.90;;;;;;5067191;28;20154;-72
2023/11/13 07:52:53;;;;;;;8.25;3.63;;;12.70;99.90;;;;;;5067219;28;20400;-71
2023/11/13 07:55:19;;;;;;;8.13;3.50;;;12.70;99.90;;;;;;5067431;28;20032;-71
2023/11/13 07:57:44;;;;;;;4.88;3.42;;;12.60;99.90;;;;;;5067636;28;20043;-72
2023/11/13 08:00:11;;;;;;;7.60;4.27;;;12.70;99.90;;;;;;5063310;28;20032;-72
2023/11/13 08:02:42;;;;;;;10.60;5.40;;;12.70;99.90;;;;;;5064404;28;20163;-72
2023/11/13 08:05:11;;;;;;;14.52;5.53;;;12.80;99.90;;;;;;5067490;28;20090;-72
2023/11/13 08:07:41;;;;;;;10.68;4.57;;;12.90;99.90;;;;;;5066525;28;20032;-72
2023/11/13 08:10:14;;;;;;;6.88;4.03;;;12.90;99.90;;;;;;5063940;28;20045;-72
2023/11/13 08:12:45;;;;;;;12.10;4.72;;;12.90;99.90;;;;;;5067197;28;20046;-72
2023/11/13 08:15:14;;;;;;;12.63;4.95;;;12.90;99.90;;;;;;5066761;28;20423;-72
2023/11/13 08:17:44;;;;;;;7.32;4.45;;;13.00;99.90;;;;;;5062682;28;20068;-72
2023/11/13 08:20:13;;;;;;;11.25;4.47;;;13.10;99.90;;;;;;5062960;28;20039;-71
2023/11/13 08:22:41;;;;;;;7.22;4.45;;;13.30;99.90;;;;;;5065037;28;20028;-72
2023/11/13 08:25:11;;;;;;;7.28;4.15;;;13.40;99.90;;;;;;5066361;28;20377;-72
2023/11/13 08:27:42;;;;;;;8.50;4.25;;;13.50;99.90;;;;;;5066912;28;20041;-72
2023/11/13 08:30:08;;;;;;;13.88;6.00;;;13.80;99.90;;;;;;5065273;28;20043;-73
2023/11/13 08:32:35;;;;;;;16.98;9.23;;;13.70;99.90;;;;;;5065393;28;20037;-72
2023/11/13 08:35:11;;;;;;;13.52;7.55;;;13.80;99.90;;;;;;5066311;28;20119;-72
2023/11/13 08:37:37;;;;;;;16.58;7.53;;;13.70;99.90;;;;;;5066048;28;20040;-72
2023/11/13 08:40:04;;;;;;;12.68;6.53;;;14.00;99.90;;;;;;5066209;28;20027;-72
2023/11/13 08:42:30;;;;;;;15.63;5.35;;;13.80;99.90;;;;;;5065902;28;20504;-71
2023/11/13 08:44:56;;;;;;;10.93;5.73;;;13.80;99.90;;;;;;5065509;28;20058;-73
2023/11/13 08:47:22;;;;;;;11.80;5.70;;;13.80;99.90;;;;;;5066311;28;20032;-72
2023/11/13 08:49:47;;;;;;;13.88;5.57;;;13.90;99.90;;;;;;5064663;28;20282;-73
2023/11/13 08:52:13;;;;;;;8.83;4.60;;;14.60;99.90;;;;;;5063198;28;20044;-72
2023/11/13 08:54:39;;;;;;;8.90;4.03;;;16.00;99.90;;;;;;5065808;28;20064;-72
2023/11/13 08:57:11;;;;;;;6.17;3.90;;;17.10;99.90;;;;;;5065829;28;20067;-72
2023/11/13 08:59:38;;;;;;;10.10;3.22;;;16.90;99.90;;;;;;5066034;28;20786;-72
2023/11/13 09:02:07;;;;;;;10.50;4.53;;;16.50;99.90;;;;;;5065925;28;20035;-72
2023/11/13 09:04:34;;;;;;;9.88;6.07;;;15.60;99.90;;;;;;5066025;28;20565;-73
2023/11/13 09:07:07;;;;;;;15.65;5.50;;;15.00;99.90;;;;;;5065446;28;20116;-72
2023/11/13 09:09:33;;;;;;;10.18;4.03;;;14.40;99.90;;;;;;5066944;28;20028;-72
2023/11/13 09:12:01;;;;;;;10.65;4.40;;;14.10;99.90;;;;;;5066008;28;20555;-72
2023/11/13 09:14:27;;;;;;;7.18;3.67;;;14.10;99.90;;;;;;5061724;28;20075;-73
2023/11/13 09:16:53;;;;;;;11.70;4.03;;;13.90;99.90;;;;;;5064004;28;20060;-74
2023/11/13 09:19:19;;;;;;;9.15;3.97;;;13.80;99.90;;;;;;5065252;28;20024;-74
2023/11/13 09:21:45;;;;;;;11.68;4.30;;;13.90;99.90;;;;;;5061393;28;20043;-74
2023/11/13 09:24:13;;;;;;;5.43;4.07;;;13.90;99.90;;;;;;5061588;28;20538;-75
2023/11/13 09:26:39;;;;;;;8.48;4.85;;;14.10;99.90;;;;;;5065564;28;20063;-72
2023/11/13 09:29:05;;;;;;;8.23;4.75;;;14.10;99.90;;;;;;5065643;28;20056;-73
2023/11/13 09:31:30;;;;;;;7.73;4.50;;;14.10;99.90;;;;;;5064869;28;20043;-73
2023/11/13 09:33:56;;;;;;;11.70;4.37;;;14.10;99.90;;;;;;5066423;28;20082;-73
2023/11/13 09:36:22;;;;;;;11.30;4.23;;;14.10;99.90;;;;;;5067196;28;20020;-73
2023/11/13 09:38:53;;;;;;;6.72;3.58;;;14.10;99.90;;;;;;5066620;28;20039;-72
2023/11/13 09:41:25;;;;;;;12.10;4.25;;;14.20;99.90;;;;;;5069720;28;20044;-73
2023/11/13 09:43:51;;;;;;;8.75;3.88;;;14.30;99.90;;;;;;5065717;28;20032;-72
2023/11/13 09:46:20;;;;;;;8.73;4.55;;;14.30;99.90;;;;;;5069402;28;20442;-73
2023/11/13 09:48:50;;;;;;;8.35;3.72;;;14.10;99.90;;;;;;5066539;28;20567;-72
2023/11/13 09:51:20;;;;;;;5.85;3.88;;;14.10;99.90;;;;;;5065775;28;20035;-72
2023/11/13 09:53:47;;;;;;;10.18;3.78;;;14.00;99.90;;;;;;5068615;28;20115;-73
2023/11/13 09:56:15;;;;;;;9.90;4.00;;;14.10;99.90;;;;;;5065272;28;20093;-72
2023/11/13 09:58:41;;;;;;;12.05;5.80;;;14.20;99.90;;;;;;5066488;28;20078;-71
2023/11/13 10:01:10;;;;;;;8.25;4.15;;;14.20;99.90;;;;;;5065391;28;20511;-74
2023/11/13 10:03:36;;;;;;;8.63;4.93;;;14.20;99.90;;;;;;5065413;28;20064;-73
2023/11/13 10:06:07;;;;;;;15.65;4.97;;;14.20;99.90;;;;;;5066256;28;20523;-74
2023/11/13 10:08:44;;;;;;;15.15;8.02;;;14.10;99.90;;;;;;5047017;28;20029;-72
2023/11/13 10:11:11;;;;;;;22.98;10.32;;;14.00;99.90;;;;;;5068728;28;20048;-73
2023/11/13 10:13:36;;;;;;;12.77;6.55;;;13.90;99.90;;;;;;5064030;28;20024;-71
2023/11/13 10:16:16;;;;;;;21.70;7.40;;;13.90;99.90;;;;;;5069783;28;20043;-73
2023/11/13 10:18:43;;;;;;;8.82;4.15;;;13.80;99.90;;;;;;5069126;28;20029;-73
2023/11/13 10:21:08;;;;;;;11.68;4.45;;;13.80;99.90;;;;;;5068819;28;20407;-71
2023/11/13 10:23:37;;;;;;;17.57;5.33;;;13.70;99.90;;;;;;5068466;28;20032;-72
2023/11/13 10:26:03;;;;;;;13.70;6.18;;;13.70;99.90;;;;;;5068763;28;20811;-72
2023/11/13 10:28:40;;;;;;;13.53;5.23;;;13.70;99.90;;;;;;5067199;28;20035;-73
2023/11/13 10:31:17;;;;;;;19.85;6.82;;;13.70;99.90;;;;;;5068287;28;20291;-74
2023/11/13 10:34:00;;;;;;;10.45;5.28;;;13.70;99.90;;;;;;5069238;28;20045;-74
2023/11/13 10:36:26;;;;;;;7.20;4.55;;;13.70;99.90;;;;;;5064855;28;20032;-72
2023/11/13 10:38:52;;;;;;;7.27;5.30;;;13.60;99.90;;;;;;5062726;28;20025;-72
2023/11/13 10:41:21;;;;;;;;;;;13.50;99.90;;;;;;5063513;28;20029;-73
2023/11/13 10:43:47;;;;;;;11.40;5.60;;;13.50;99.90;;;;;;5061892;28;19917;-71
2023/11/13 10:46:33;;;;;;;9.60;5.63;;;13.50;99.90;;;;;;5062839;28;20055;-71
2023/11/13 10:49:00;;;;;;;15.38;6.25;;;13.50;99.90;;;;;;5062093;28;20167;-73
2023/11/13 10:51:28;;;;;;;12.57;7.33;;;13.60;99.90;;;;;;5061550;28;20498;-73
2023/11/13 10:53:56;;;;;;;20.60;7.88;;;13.70;99.90;;;;;;5059705;28;20392;-72
2023/11/13 10:56:25;;;;;;;13.80;7.93;;;13.70;99.90;;;;;;5059337;28;20028;-72
2023/11/13 10:58:51;;;;;;;18.13;7.55;;;13.60;99.90;;;;;;5064661;28;20039;-72
2023/11/13 11:01:27;;;;;;;9.88;5.22;;;13.60;99.90;;;;;;5065989;28;20040;-72
2023/11/13 11:03:58;;;;;;;14.20;5.13;;;13.70;99.90;;;;;;5056463;28;20757;-73
2023/11/13 11:06:32;;;;;;;11.57;4.85;;;13.60;99.90;;;;;;5048368;28;20025;-74
2023/11/13 11:09:01;;;;;;;11.38;4.45;;;13.70;99.90;;;;;;5066549;28;20064;-73
2023/11/13 11:11:30;;;;;;;13.90;4.90;;;13.80;99.90;;;;;;5066956;28;20044;-73
2023/11/13 11:14:01;;;;;;;12.13;5.20;;;13.80;99.90;;;;;;5063858;28;20029;-71
2023/11/13 11:16:39;;;;;;;11.35;4.65;;;13.90;99.90;;;;;;5060062;28;20061;-71
2023/11/13 11:19:29;;;;;;;7.43;5.00;;;13.90;99.90;;;;;;5059155;28;20036;-73
2023/11/13 11:22:34;;;;;;;13.80;5.85;;;13.90;99.90;;;;;;5055819;28;20034;-71
2023/11/13 11:25:13;;;;;;;10.32;4.55;;;14.00;99.90;;;;;;5065708;28;20025;-72
2023/11/13 11:27:43;;;;;;;12.55;4.00;;;14.10;99.90;;;;;;5064053;28;20029;-73
2023/11/13 11:30:18;;;;;;;13.27;4.65;;;14.20;99.90;;;;;;5060974;28;20032;-73
2023/11/13 11:32:59;;;;;;;5.70;2.50;;;14.20;99.90;;;;;;5067326;28;20036;-72
2023/11/13 11:35:29;;;;;;;7.80;2.53;;;14.20;99.90;;;;;;5060823;28;20147;-72
2023/11/13 11:38:28;;;;;;;7.03;2.70;;;14.30;99.90;;;;;;5060040;28;20037;-72
2023/11/13 11:40:55;;;;;;;4.68;2.60;;;14.40;99.90;;;;;;5030493;28;20051;-73
2023/11/13 11:43:27;;;;;;;4.20;2.13;;;14.50;99.90;;;;;;5067437;28;20103;-72
2023/11/13 11:45:53;;;;;;;6.15;2.63;;;14.60;99.90;;;;;;5066551;28;20487;-72
2023/11/13 11:48:21;;;;;;;10.57;2.13;;;14.60;99.90;;;;;;5063996;28;20029;-72
2023/11/13 11:50:51;;;;;;;7.35;1.85;;;14.70;99.90;;;;;;5056740;28;20036;-72
2023/11/13 11:53:20;;;;;;;8.32;1.90;;;14.60;99.90;;;;;;5067866;28;20119;-73
2023/11/13 11:55:46;;;;;;;4.68;2.08;;;14.70;99.90;;;;;;5060345;28;20029;-72
2023/11/13 11:58:15;;;;;;;6.03;2.13;;;14.70;99.90;;;;;;5067369;28;20354;-72
2023/11/13 12:00:42;;;;;;;7.10;1.88;;;14.60;99.90;;;;;;5060498;28;20059;-72
2023/11/13 12:03:08;;;;;;;5.97;2.40;;;14.70;99.90;;;;;;5065068;28;20089;-71
2023/11/13 12:05:36;;;;;;;7.82;2.97;;;14.70;99.90;;;;;;5062441;28;20036;-71
2023/11/13 12:08:07;;;;;;;11.02;3.17;;;14.80;99.90;;;;;;5061486;28;20116;-72
2023/11/13 12:10:34;;;;;;;7.03;2.97;;;14.90;99.90;;;;;;5062579;28;20770;-72
2023/11/13 12:13:00;;;;;;;6.25;2.50;;;15.00;99.90;;;;;;5064247;28;20032;-71
2023/11/13 12:15:26;;;;;;;9.10;2.33;;;15.00;99.90;;;;;;5062993;28;20027;-71
2023/11/13 12:17:53;;;;;;;4.90;1.77;;;15.10;99.90;;;;;;5057730;28;20033;-71
2023/11/13 12:20:19;;;;;;;10.48;1.85;;;15.20;99.90;;;;;;5060774;28;20035;-71
2023/11/13 12:22:44;;;;;;;6.07;1.92;;;15.20;99.90;;;;;;5062752;28;20025;-72
2023/11/13 12:25:12;;;;;;;4.97;1.60;;;15.20;99.90;;;;;;5047069;28;20045;-71
2023/11/13 12:27:40;;;;;;;5.50;1.73;;;15.20;99.90;;;;;;5058855;28;20043;-71
2023/11/13 12:30:16;;;;;;;2.35;1.48;;;15.20;99.90;;;;;;5061969;28;20032;-72
2023/11/13 12:32:44;;;;;;;4.97;1.85;;;15.20;99.90;;;;;;5047583;28;20322;-71
2023/11/13 12:35:13;;;;;;;5.38;1.83;;;15.10;99.90;;;;;;5063910;28;20029;-71
2023/11/13 12:37:42;;;;;;;4.60;1.85;;;15.20;99.90;;;;;;5044670;28;20039;-71
2023/11/13 12:40:10;;;;;;;4.97;1.90;;;15.10;99.90;;;;;;5066401;28;20105;-72